Warwick, Maryland
Current Conditions -  °F | °C
As of 8:51 AM on Thursday 30 Oct 2014 (Local Time) from KILG Reporting Station
Overcast Overcast  
Wind Chill: 48°   Ceiling: 7000
Heat Index: 48°   Visibility: 10mi
Dew Point: 45°   Wind: 3mph
Humidity: 89%   Direction: 310°NW
Pressure: 30.04"   Gusts: NA
Location:  39.42°N, 75.78°W
Report Text: KILG 301251Z 31003KT 10SM OVC070 09/07 A3004 RMK AO2 SLP172 T00890072
Loading
Personal Weather Stations






























Interactive Weather Map
Tropical Storm Tracking
New forecast layout! Learn more

10-Day Weather Forecast

Advertisements
Track Severe Weather on mobile